sensor_id;sensor_type;location;lat;lon;timestamp;pressure;altitude;pressure_sealevel;temperature;humidity
16777;BME280;8505;49.456;8.164;2023-05-10T00:01:31;99095.44;;;13.44;89.58
16777;BME280;8505;49.456;8.164;2023-05-10T00:03:59;99091.13;;;13.36;90.85
16777;BME280;8505;49.456;8.164;2023-05-10T00:06:27;99089.94;;;13.39;89.63
16777;BME280;8505;49.456;8.164;2023-05-10T00:08:55;99097.06;;;13.25;90.22
16777;BME280;8505;49.456;8.164;2023-05-10T00:11:23;99100.97;;;13.36;89.94
16777;BME280;8505;49.456;8.164;2023-05-10T00:13:51;99098.91;;;13.31;90.00
16777;BME280;8505;49.456;8.164;2023-05-10T00:16:19;99095.25;;;13.39;89.98
16777;BME280;8505;49.456;8.164;2023-05-10T00:18:48;99092.16;;;13.22;90.38
16777;BME280;8505;49.456;8.164;2023-05-10T00:21:17;99092.78;;;13.44;89.61
16777;BME280;8505;49.456;8.164;2023-05-10T00:23:45;99092.56;;;13.46;89.21
16777;BME280;8505;49.456;8.164;2023-05-10T00:26:13;99100.34;;;13.41;89.35
16777;BME280;8505;49.456;8.164;2023-05-10T00:28:41;99100.13;;;13.55;89.10
16777;BME280;8505;49.456;8.164;2023-05-10T00:31:09;99096.25;;;13.38;88.03
16777;BME280;8505;49.456;8.164;2023-05-10T00:33:36;99092.97;;;13.23;89.00
16777;BME280;8505;49.456;8.164;2023-05-10T00:36:06;99090.13;;;13.31;89.20
16777;BME280;8505;49.456;8.164;2023-05-10T00:38:34;99097.47;;;13.29;89.44
16777;BME280;8505;49.456;8.164;2023-05-10T00:41:03;99086.00;;;13.15;88.94
16777;BME280;8505;49.456;8.164;2023-05-10T00:43:30;99093.41;;;13.20;89.28
16777;BME280;8505;49.456;8.164;2023-05-10T00:45:58;99097.91;;;13.26;89.19
16777;BME280;8505;49.456;8.164;2023-05-10T00:48:28;99090.31;;;13.16;89.06
16777;BME280;8505;49.456;8.164;2023-05-10T00:50:57;99098.47;;;13.15;89.08
16777;BME280;8505;49.456;8.164;2023-05-10T00:53:26;99100.13;;;13.22;89.02
16777;BME280;8505;49.456;8.164;2023-05-10T00:55:55;99103.78;;;13.15;89.11
16777;BME280;8505;49.456;8.164;2023-05-10T00:58:23;99094.38;;;13.06;89.34
16777;BME280;8505;49.456;8.164;2023-05-10T01:00:55;99093.59;;;13.25;89.32
16777;BME280;8505;49.456;8.164;2023-05-10T01:03:24;99105.66;;;13.14;89.08
16777;BME280;8505;49.456;8.164;2023-05-10T01:05:52;99099.50;;;13.27;89.12
16777;BME280;8505;49.456;8.164;2023-05-10T01:08:20;99099.53;;;13.20;89.09
16777;BME280;8505;49.456;8.164;2023-05-10T01:10:50;99100.34;;;13.27;88.87
16777;BME280;8505;49.456;8.164;2023-05-10T01:13:34;99109.75;;;13.23;88.83
16777;BME280;8505;49.456;8.164;2023-05-10T01:16:04;99109.75;;;13.23;89.08
16777;BME280;8505;49.456;8.164;2023-05-10T01:18:35;99103.63;;;13.36;88.71
16777;BME280;8505;49.456;8.164;2023-05-10T01:21:15;99103.78;;;13.15;88.44
16777;BME280;8505;49.456;8.164;2023-05-10T01:27:14;99113.22;;;13.24;89.27
16777;BME280;8505;49.456;8.164;2023-05-10T01:30:02;99110.16;;;13.14;89.53
16777;BME280;8505;49.456;8.164;2023-05-10T01:32:52;99110.56;;;13.24;88.40
16777;BME280;8505;49.456;8.164;2023-05-10T01:35:30;99123.47;;;13.20;88.53
16777;BME280;8505;49.456;8.164;2023-05-10T01:38:09;99112.22;;;13.25;88.51
16777;BME280;8505;49.456;8.164;2023-05-10T01:40:47;99122.44;;;13.28;88.96
16777;BME280;8505;49.456;8.164;2023-05-10T01:43:19;99126.72;;;13.22;89.27
16777;BME280;8505;49.456;8.164;2023-05-10T01:45:55;99123.69;;;13.32;88.37
16777;BME280;8505;49.456;8.164;2023-05-10T01:48:28;99125.50;;;13.25;88.43
16777;BME280;8505;49.456;8.164;2023-05-10T01:50:58;99134.28;;;13.19;88.18
16777;BME280;8505;49.456;8.164;2023-05-10T01:53:27;99128.75;;;13.27;88.29
16777;BME280;8505;49.456;8.164;2023-05-10T01:55:56;99135.13;;;13.26;88.60
16777;BME280;8505;49.456;8.164;2023-05-10T01:58:27;99133.69;;;13.23;88.31
16777;BME280;8505;49.456;8.164;2023-05-10T02:00:58;99133.28;;;13.33;88.55
16777;BME280;8505;49.456;8.164;2023-05-10T02:03:31;99137.56;;;13.34;87.83
16777;BME280;8505;49.456;8.164;2023-05-10T02:06:00;99132.66;;;13.31;88.14
16777;BME280;8505;49.456;8.164;2023-05-10T02:08:29;99138.81;;;13.31;88.69
16777;BME280;8505;49.456;8.164;2023-05-10T02:10:58;99137.78;;;13.46;88.25
16777;BME280;8505;49.456;8.164;2023-05-10T02:13:29;99131.03;;;13.43;88.29
16777;BME280;8505;49.456;8.164;2023-05-10T02:15:59;99134.09;;;13.47;88.36
16777;BME280;8505;49.456;8.164;2023-05-10T02:18:29;99140.44;;;13.46;87.83
16777;BME280;8505;49.456;8.164;2023-05-10T02:20:58;99135.94;;;13.33;88.09
16777;BME280;8505;49.456;8.164;2023-05-10T02:23:26;99125.09;;;13.41;88.28
16777;BME280;8505;49.456;8.164;2023-05-10T02:25:57;99139.63;;;13.39;88.43
16777;BME280;8505;49.456;8.164;2023-05-10T02:28:25;99120.19;;;13.45;88.31
16777;BME280;8505;49.456;8.164;2023-05-10T02:30:54;99133.28;;;13.53;87.52
16777;BME280;8505;49.456;8.164;2023-05-10T02:33:23;99141.69;;;13.43;88.22
16777;BME280;8505;49.456;8.164;2023-05-10T02:35:53;99149.84;;;13.61;87.59
16777;BME280;8505;49.456;8.164;2023-05-10T02:38:22;99149.03;;;13.41;89.20
16777;BME280;8505;49.456;8.164;2023-05-10T02:40:52;99146.34;;;13.28;89.17
16777;BME280;8505;49.456;8.164;2023-05-10T02:43:22;99156.00;;;13.55;87.57
16777;BME280;8505;49.456;8.164;2023-05-10T02:45:51;99162.53;;;13.59;87.21
16777;BME280;8505;49.456;8.164;2023-05-10T02:48:19;99152.31;;;13.43;86.60
16777;BME280;8505;49.456;8.164;2023-05-10T02:50:47;99156.59;;;13.31;87.03
16777;BME280;8505;49.456;8.164;2023-05-10T02:53:22;99157.78;;;13.15;87.22
16777;BME280;8505;49.456;8.164;2023-05-10T02:55:52;99153.53;;;13.14;88.02
16777;BME280;8505;49.456;8.164;2023-05-10T02:58:24;99155.50;;;13.06;88.33
16777;BME280;8505;49.456;8.164;2023-05-10T03:00:53;99163.72;;;13.17;87.80
16777;BME280;8505;49.456;8.164;2023-05-10T03:03:21;99160.69;;;13.14;87.75
16777;BME280;8505;49.456;8.164;2023-05-10T03:05:49;99161.44;;;13.08;87.96
16777;BME280;8505;49.456;8.164;2023-05-10T03:08:16;99155.09;;;13.09;87.95
16777;BME280;8505;49.456;8.164;2023-05-10T03:10:54;99169.19;;;13.03;88.06
16777;BME280;8505;49.456;8.164;2023-05-10T03:13:28;99162.00;;;12.96;88.40
16777;BME280;8505;49.456;8.164;2023-05-10T03:15:59;99168.16;;;13.04;87.95
16777;BME280;8505;49.456;8.164;2023-05-10T03:18:38;99169.19;;;12.89;88.65
16777;BME280;8505;49.456;8.164;2023-05-10T03:21:11;99166.72;;;12.94;87.81
16777;BME280;8505;49.456;8.164;2023-05-10T03:23:42;99161.63;;;13.00;87.33
16777;BME280;8505;49.456;8.164;2023-05-10T03:26:17;99162.81;;;12.90;87.43
16777;BME280;8505;49.456;8.164;2023-05-10T03:28:48;99159.75;;;12.87;87.61
16777;BME280;8505;49.456;8.164;2023-05-10T03:31:17;99157.94;;;12.94;87.45
16777;BME280;8505;49.456;8.164;2023-05-10T03:33:46;99156.50;;;12.98;87.32
16777;BME280;8505;49.456;8.164;2023-05-10T03:36:15;99153.66;;;13.00;87.04
16777;BME280;8505;49.456;8.164;2023-05-10T03:38:43;99150.19;;;13.06;87.47
16777;BME280;8505;49.456;8.164;2023-05-10T03:41:10;99157.31;;;12.98;87.82
16777;BME280;8505;49.456;8.164;2023-05-10T03:43:40;99164.88;;;12.88;88.83
16777;BME280;8505;49.456;8.164;2023-05-10T03:46:07;99154.88;;;13.04;88.21
16777;BME280;8505;49.456;8.164;2023-05-10T03:48:36;99161.22;;;12.96;88.55
16777;BME280;8505;49.456;8.164;2023-05-10T03:51:04;99157.91;;;12.81;88.93
16777;BME280;8505;49.456;8.164;2023-05-10T03:53:32;99160.75;;;12.79;89.29
16777;BME280;8505;49.456;8.164;2023-05-10T03:55:59;99157.47;;;12.71;89.73
16777;BME280;8505;49.456;8.164;2023-05-10T03:58:27;99158.28;;;12.78;89.93
16777;BME280;8505;49.456;8.164;2023-05-10T04:00:56;99153.38;;;12.75;90.07
16777;BME280;8505;49.456;8.164;2023-05-10T04:03:24;99168.66;;;12.66;90.25
16777;BME280;8505;49.456;8.164;2023-05-10T04:05:58;99158.72;;;12.81;89.14
16777;BME280;8505;49.456;8.164;2023-05-10T04:08:27;99164.66;;;12.90;88.69
16777;BME280;8505;49.456;8.164;2023-05-10T04:10:54;99165.69;;;12.82;88.76
16777;BME280;8505;49.456;8.164;2023-05-10T04:13:22;99171.84;;;12.89;88.38
16777;BME280;8505;49.456;8.164;2023-05-10T04:15:50;99177.16;;;12.89;88.92
16777;BME280;8505;49.456;8.164;2023-05-10T04:18:19;99166.53;;;12.96;88.54
16777;BME280;8505;49.456;8.164;2023-05-10T04:20:47;99157.97;;;13.01;88.27
16777;BME280;8505;49.456;8.164;2023-05-10T04:23:15;99166.53;;;12.96;88.43
16777;BME280;8505;49.456;8.164;2023-05-10T04:25:43;99167.97;;;13.05;88.01
16777;BME280;8505;49.456;8.164;2023-05-10T04:28:11;99172.66;;;13.03;87.93
16777;BME280;8505;49.456;8.164;2023-05-10T04:30:39;99176.63;;;13.14;87.89
16777;BME280;8505;49.456;8.164;2023-05-10T04:33:07;99173.16;;;13.20;87.38
16777;BME280;8505;49.456;8.164;2023-05-10T04:35:36;99168.00;;;13.12;87.51
16777;BME280;8505;49.456;8.164;2023-05-10T04:38:05;99175.56;;;13.08;87.76
16777;BME280;8505;49.456;8.164;2023-05-10T04:40:33;99171.91;;;13.16;87.75
16777;BME280;8505;49.456;8.164;2023-05-10T04:43:01;99170.50;;;13.13;87.67
16777;BME280;8505;49.456;8.164;2023-05-10T04:45:29;99174.38;;;13.24;87.62
16777;BME280;8505;49.456;8.164;2023-05-10T04:47:57;99171.09;;;13.15;87.71
16777;BME280;8505;49.456;8.164;2023-05-10T04:50:24;99173.34;;;13.18;87.79
16777;BME280;8505;49.456;8.164;2023-05-10T04:52:54;99180.75;;;13.36;87.08
16777;BME280;8505;49.456;8.164;2023-05-10T04:55:21;99173.78;;;13.35;86.63
16777;BME280;8505;49.456;8.164;2023-05-10T04:57:49;99173.38;;;13.25;87.43
16777;BME280;8505;49.456;8.164;2023-05-10T05:00:17;99176.44;;;13.28;86.43
16777;BME280;8505;49.456;8.164;2023-05-10T05:02:45;99185.22;;;13.29;87.22
16777;BME280;8505;49.456;8.164;2023-05-10T05:05:14;99191.56;;;13.34;87.62
16777;BME280;8505;49.456;8.164;2023-05-10T05:07:42;99186.69;;;13.38;87.48
16777;BME280;8505;49.456;8.164;2023-05-10T05:10:11;99198.94;;;13.46;86.61
16777;BME280;8505;49.456;8.164;2023-05-10T05:12:39;99201.63;;;13.52;86.18
16777;BME280;8505;49.456;8.164;2023-05-10T05:15:07;99211.69;;;13.63;86.20
16777;BME280;8505;49.456;8.164;2023-05-10T05:17:36;99197.75;;;13.88;84.58
16777;BME280;8505;49.456;8.164;2023-05-10T05:20:05;99196.50;;;13.90;84.16
16777;BME280;8505;49.456;8.164;2023-05-10T05:22:33;99202.84;;;13.83;84.08
16777;BME280;8505;49.456;8.164;2023-05-10T05:25:01;99203.47;;;13.91;83.87
16777;BME280;8505;49.456;8.164;2023-05-10T05:27:31;99218.63;;;13.84;85.23
16777;BME280;8505;49.456;8.164;2023-05-10T05:29:59;99216.16;;;13.89;84.51
16777;BME280;8505;49.456;8.164;2023-05-10T05:32:27;99210.22;;;14.07;83.68
16777;BME280;8505;49.456;8.164;2023-05-10T05:34:55;99213.66;;;14.34;83.29
16777;BME280;8505;49.456;8.164;2023-05-10T05:37:23;99215.09;;;14.36;82.93
16777;BME280;8505;49.456;8.164;2023-05-10T05:39:51;99212.03;;;14.39;81.29
16777;BME280;8505;49.456;8.164;2023-05-10T05:42:19;99210.41;;;14.32;83.33
16777;BME280;8505;49.456;8.164;2023-05-10T05:44:48;99217.97;;;14.41;81.72
16777;BME280;8505;49.456;8.164;2023-05-10T05:47:16;99225.13;;;14.34;82.01
16777;BME280;8505;49.456;8.164;2023-05-10T05:49:43;99224.97;;;14.09;82.78
16777;BME280;8505;49.456;8.164;2023-05-10T05:52:13;99229.69;;;14.01;82.79
16777;BME280;8505;49.456;8.164;2023-05-10T05:54:40;99227.41;;;14.11;83.06
16777;BME280;8505;49.456;8.164;2023-05-10T05:57:08;99243.59;;;14.23;82.04
16777;BME280;8505;49.456;8.164;2023-05-10T05:59:36;99245.88;;;13.93;82.59
16777;BME280;8505;49.456;8.164;2023-05-10T06:02:10;99236.22;;;14.11;82.94
16777;BME280;8505;49.456;8.164;2023-05-10T06:04:38;99239.47;;;14.33;81.05
16777;BME280;8505;49.456;8.164;2023-05-10T06:07:10;99240.28;;;14.53;79.89
16777;BME280;8505;49.456;8.164;2023-05-10T06:09:37;99242.97;;;14.40;79.70
16777;BME280;8505;49.456;8.164;2023-05-10T06:12:05;99249.03;;;14.74;79.21
16777;BME280;8505;49.456;8.164;2023-05-10T06:14:36;99253.78;;;14.58;78.40
16777;BME280;8505;49.456;8.164;2023-05-10T06:17:04;99258.56;;;15.01;77.94
16777;BME280;8505;49.456;8.164;2023-05-10T06:19:34;99264.72;;;15.02;77.33
16777;BME280;8505;49.456;8.164;2023-05-10T06:22:03;99256.91;;;15.07;77.55
16777;BME280;8505;49.456;8.164;2023-05-10T06:24:30;99263.19;;;14.81;77.17
16777;BME280;8505;49.456;8.164;2023-05-10T06:26:58;99269.06;;;14.89;78.46
16777;BME280;8505;49.456;8.164;2023-05-10T06:29:27;99274.91;;;15.24;77.53
16777;BME280;8505;49.456;8.164;2023-05-10T06:31:54;99275.34;;;15.59;75.83
16777;BME280;8505;49.456;8.164;2023-05-10T06:34:22;99273.25;;;15.23;77.16
16777;BME280;8505;49.456;8.164;2023-05-10T06:36:51;99279.47;;;15.11;77.14
16777;BME280;8505;49.456;8.164;2023-05-10T06:39:19;99273.56;;;14.95;77.46
16777;BME280;8505;49.456;8.164;2023-05-10T06:41:47;99270.16;;;15.26;77.08
16777;BME280;8505;49.456;8.164;2023-05-10T06:44:15;99273.28;;;15.17;75.37
16777;BME280;8505;49.456;8.164;2023-05-10T06:46:43;99272.59;;;15.28;75.05
16777;BME280;8505;49.456;8.164;2023-05-10T06:49:10;99269.84;;;15.03;74.83
16777;BME280;8505;49.456;8.164;2023-05-10T06:51:38;99276.75;;;15.24;74.82
16777;BME280;8505;49.456;8.164;2023-05-10T06:54:07;99270.66;;;15.55;73.03
16777;BME280;8505;49.456;8.164;2023-05-10T06:56:35;99273.66;;;15.65;72.49
16777;BME280;8505;49.456;8.164;2023-05-10T06:59:03;99269.34;;;15.95;71.49
16777;BME280;8505;49.456;8.164;2023-05-10T07:01:31;99279.50;;;16.05;71.32
16777;BME280;8505;49.456;8.164;2023-05-10T07:03:59;99278.31;;;16.26;70.11
16777;BME280;8505;49.456;8.164;2023-05-10T07:06:27;99274.31;;;15.92;71.75
16777;BME280;8505;49.456;8.164;2023-05-10T07:08:59;99280.22;;;15.94;70.93
16777;BME280;8505;49.456;8.164;2023-05-10T07:11:28;99281.88;;;16.19;70.63
16777;BME280;8505;49.456;8.164;2023-05-10T07:13:57;99291.84;;;16.31;69.93
16777;BME280;8505;49.456;8.164;2023-05-10T07:16:25;99293.19;;;16.65;69.72
16777;BME280;8505;49.456;8.164;2023-05-10T07:18:53;99292.88;;;16.73;69.28
16777;BME280;8505;49.456;8.164;2023-05-10T07:21:21;99291.63;;;16.75;69.60
16777;BME280;8505;49.456;8.164;2023-05-10T07:23:50;99294.06;;;16.58;68.39
16777;BME280;8505;49.456;8.164;2023-05-10T07:26:18;99299.00;;;16.55;69.60
16777;BME280;8505;49.456;8.164;2023-05-10T07:28:47;99298.66;;;16.27;69.69
16777;BME280;8505;49.456;8.164;2023-05-10T07:31:15;99294.25;;;16.39;69.54
16777;BME280;8505;49.456;8.164;2023-05-10T07:33:42;99298.94;;;16.18;70.96
16777;BME280;8505;49.456;8.164;2023-05-10T07:36:10;99303.84;;;15.97;70.25
16777;BME280;8505;49.456;8.164;2023-05-10T07:38:39;99311.72;;;16.16;70.46
16777;BME280;8505;49.456;8.164;2023-05-10T07:41:07;99307.16;;;16.17;70.42
16777;BME280;8505;49.456;8.164;2023-05-10T07:43:34;99308.66;;;15.82;71.12
16777;BME280;8505;49.456;8.164;2023-05-10T07:46:04;99311.31;;;15.82;71.52
16777;BME280;8505;49.456;8.164;2023-05-10T07:48:32;99303.72;;;15.85;71.64
16777;BME280;8505;49.456;8.164;2023-05-10T07:50:59;99312.56;;;15.86;71.86
16777;BME280;8505;49.456;8.164;2023-05-10T07:53:27;99309.75;;;15.99;71.95
16777;BME280;8505;49.456;8.164;2023-05-10T07:55:57;99315.84;;;15.81;71.23
16777;BME280;8505;49.456;8.164;2023-05-10T07:58:25;99311.53;;;15.80;70.97
16777;BME280;8505;49.456;8.164;2023-05-10T08:00:53;99314.78;;;15.89;70.90
16777;BME280;8505;49.456;8.164;2023-05-10T08:03:22;99314.22;;;15.80;71.88
16777;BME280;8505;49.456;8.164;2023-05-10T08:05:50;99317.13;;;15.78;71.87
16777;BME280;8505;49.456;8.164;2023-05-10T08:08:18;99315.47;;;16.09;70.76
16777;BME280;8505;49.456;8.164;2023-05-10T08:10:47;99324.63;;;16.19;71.21
16777;BME280;8505;49.456;8.164;2023-05-10T08:13:15;99322.44;;;16.10;70.24
16777;BME280;8505;49.456;8.164;2023-05-10T08:18:46;99319.84;;;16.28;70.27
16777;BME280;8505;49.456;8.164;2023-05-10T08:21:14;99323.31;;;16.04;71.42
16777;BME280;8505;49.456;8.164;2023-05-10T08:23:42;99323.47;;;16.09;71.94
16777;BME280;8505;49.456;8.164;2023-05-10T08:26:11;99324.97;;;16.48;70.48
16777;BME280;8505;49.456;8.164;2023-05-10T08:28:38;99326.97;;;16.59;69.67
16777;BME280;8505;49.456;8.164;2023-05-10T08:31:07;99324.69;;;16.81;68.71
16777;BME280;8505;49.456;8.164;2023-05-10T08:33:37;99336.81;;;17.20;67.11
16777;BME280;8505;49.456;8.164;2023-05-10T08:36:27;99331.34;;;17.15;65.69
16777;BME280;8505;49.456;8.164;2023-05-10T08:38:54;99332.50;;;17.19;65.18
16777;BME280;8505;49.456;8.164;2023-05-10T08:41:23;99327.50;;;17.89;64.77
16777;BME280;8505;49.456;8.164;2023-05-10T08:43:53;99340.63;;;18.20;61.54
16777;BME280;8505;49.456;8.164;2023-05-10T08:46:22;99333.34;;;18.74;60.22
16777;BME280;8505;49.456;8.164;2023-05-10T08:48:51;99340.66;;;18.32;59.73
16777;BME280;8505;49.456;8.164;2023-05-10T08:51:25;99337.75;;;17.62;61.46
16777;BME280;8505;49.456;8.164;2023-05-10T08:53:56;99341.53;;;17.72;62.31
16777;BME280;8505;49.456;8.164;2023-05-10T08:56:24;99344.69;;;17.33;62.63
16777;BME280;8505;49.456;8.164;2023-05-10T08:58:52;99345.75;;;17.14;63.38
16777;BME280;8505;49.456;8.164;2023-05-10T09:01:21;99360.56;;;16.73;64.39
16777;BME280;8505;49.456;8.164;2023-05-10T09:03:50;99369.78;;;15.96;67.14
16777;BME280;8505;49.456;8.164;2023-05-10T09:06:18;99370.91;;;16.13;67.20
16777;BME280;8505;49.456;8.164;2023-05-10T09:08:47;99370.28;;;15.80;67.60
16777;BME280;8505;49.456;8.164;2023-05-10T09:11:17;99376.84;;;16.15;66.92
16777;BME280;8505;49.456;8.164;2023-05-10T09:13:46;99365.31;;;16.46;66.70
16777;BME280;8505;49.456;8.164;2023-05-10T09:16:15;99369.31;;;16.06;66.00
16777;BME280;8505;49.456;8.164;2023-05-10T09:18:47;99372.41;;;16.34;65.30
16777;BME280;8505;49.456;8.164;2023-05-10T09:21:16;99375.44;;;16.38;64.22
16777;BME280;8505;49.456;8.164;2023-05-10T09:23:44;99380.97;;;16.11;64.40
16777;BME280;8505;49.456;8.164;2023-05-10T09:26:14;99377.41;;;15.93;64.51
16777;BME280;8505;49.456;8.164;2023-05-10T09:28:54;99371.59;;;16.02;65.27
16777;BME280;8505;49.456;8.164;2023-05-10T09:31:23;99389.16;;;16.23;63.80
16777;BME280;8505;49.456;8.164;2023-05-10T09:33:56;99397.16;;;16.23;63.84
16777;BME280;8505;49.456;8.164;2023-05-10T09:36:24;99390.34;;;16.27;63.08
16777;BME280;8505;49.456;8.164;2023-05-10T09:38:53;99393.22;;;16.26;63.52
16777;BME280;8505;49.456;8.164;2023-05-10T09:41:22;99394.88;;;15.89;65.29
16777;BME280;8505;49.456;8.164;2023-05-10T09:43:55;99396.41;;;16.09;64.51
16777;BME280;8505;49.456;8.164;2023-05-10T09:46:23;99401.06;;;15.89;63.96
16777;BME280;8505;49.456;8.164;2023-05-10T09:48:51;99403.38;;;15.79;65.06
16777;BME280;8505;49.456;8.164;2023-05-10T09:51:19;99409.66;;;15.98;63.56
16777;BME280;8505;49.456;8.164;2023-05-10T09:53:48;99404.56;;;16.21;63.97
16777;BME280;8505;49.456;8.164;2023-05-10T09:56:36;99405.38;;;16.53;63.30
16777;BME280;8505;49.456;8.164;2023-05-10T09:59:10;99403.75;;;16.77;61.84
16777;BME280;8505;49.456;8.164;2023-05-10T10:01:38;99396.31;;;17.40;60.72
16777;BME280;8505;49.456;8.164;2023-05-10T10:04:09;99402.16;;;17.30;60.53
16777;BME280;8505;49.456;8.164;2023-05-10T10:06:39;99402.31;;;17.35;59.21
16777;BME280;8505;49.456;8.164;2023-05-10T10:09:07;99406.97;;;17.65;59.10
16777;BME280;8505;49.456;8.164;2023-05-10T10:11:37;99401.88;;;17.75;57.50
16777;BME280;8505;49.456;8.164;2023-05-10T10:14:07;99396.38;;;17.52;58.81
16777;BME280;8505;49.456;8.164;2023-05-10T10:16:35;99392.53;;;17.96;57.67
16777;BME280;8505;49.456;8.164;2023-05-10T10:19:18;99400.44;;;17.18;57.86
16777;BME280;8505;49.456;8.164;2023-05-10T10:21:46;99396.44;;;17.09;59.21
16777;BME280;8505;49.456;8.164;2023-05-10T10:24:14;99403.13;;;17.54;57.79
16777;BME280;8505;49.456;8.164;2023-05-10T10:26:42;99398.00;;;17.16;59.56
16777;BME280;8505;49.456;8.164;2023-05-10T10:29:20;99411.69;;;16.58;62.22
16777;BME280;8505;49.456;8.164;2023-05-10T10:31:55;99408.09;;;16.96;61.64
16777;BME280;8505;49.456;8.164;2023-05-10T10:34:29;99410.34;;;16.43;61.21
16777;BME280;8505;49.456;8.164;2023-05-10T10:37:04;99407.16;;;16.03;61.91
16777;BME280;8505;49.456;8.164;2023-05-10T10:39:33;99410.72;;;16.22;61.56
16777;BME280;8505;49.456;8.164;2023-05-10T10:42:03;99409.22;;;16.57;60.42
16777;BME280;8505;49.456;8.164;2023-05-10T10:44:37;99409.56;;;16.67;60.48
16777;BME280;8505;49.456;8.164;2023-05-10T10:47:20;99406.31;;;16.34;59.65
16777;BME280;8505;49.456;8.164;2023-05-10T10:49:52;99403.91;;;16.82;59.15
16777;BME280;8505;49.456;8.164;2023-05-10T10:52:33;99401.81;;;16.59;58.60
16777;BME280;8505;49.456;8.164;2023-05-10T10:55:04;99404.22;;;16.67;58.48
16777;BME280;8505;49.456;8.164;2023-05-10T10:57:42;99404.72;;;16.82;57.20
16777;BME280;8505;49.456;8.164;2023-05-10T11:00:36;99405.88;;;16.68;58.43
16777;BME280;8505;49.456;8.164;2023-05-10T11:03:08;99399.41;;;17.01;57.54
16777;BME280;8505;49.456;8.164;2023-05-10T11:05:41;99395.44;;;16.85;58.59
16777;BME280;8505;49.456;8.164;2023-05-10T11:08:16;99395.53;;;16.96;57.99
16777;BME280;8505;49.456;8.164;2023-05-10T11:10:52;99397.84;;;17.29;57.58
16777;BME280;8505;49.456;8.164;2023-05-10T11:13:28;99392.19;;;17.56;56.90
16777;BME280;8505;49.456;8.164;2023-05-10T11:15:58;99401.88;;;17.38;58.17
16777;BME280;8505;49.456;8.164;2023-05-10T11:18:28;99401.94;;;17.14;57.97
16777;BME280;8505;49.456;8.164;2023-05-10T11:20:57;99394.06;;;17.01;57.84
16777;BME280;8505;49.456;8.164;2023-05-10T11:23:30;99399.13;;;17.27;56.87
16777;BME280;8505;49.456;8.164;2023-05-10T11:26:00;99397.91;;;17.23;57.30
16777;BME280;8505;49.456;8.164;2023-05-10T11:28:28;99400.56;;;16.86;57.00
16777;BME280;8505;49.456;8.164;2023-05-10T11:30:57;99413.66;;;16.94;57.05
16777;BME280;8505;49.456;8.164;2023-05-10T11:33:25;99400.69;;;16.73;56.71
16777;BME280;8505;49.456;8.164;2023-05-10T11:35:53;99400.81;;;17.03;56.60
16777;BME280;8505;49.456;8.164;2023-05-10T11:38:21;99401.19;;;17.25;56.39
16777;BME280;8505;49.456;8.164;2023-05-10T11:40:51;99403.72;;;17.20;55.68
16777;BME280;8505;49.456;8.164;2023-05-10T11:43:23;99401.28;;;17.18;55.97
16777;BME280;8505;49.456;8.164;2023-05-10T11:45:54;99395.78;;;17.31;55.00
16777;BME280;8505;49.456;8.164;2023-05-10T11:48:24;99402.84;;;17.26;55.40
16777;BME280;8505;49.456;8.164;2023-05-10T11:50:52;99411.09;;;16.81;56.47
16777;BME280;8505;49.456;8.164;2023-05-10T11:53:25;99413.22;;;16.73;57.41
16777;BME280;8505;49.456;8.164;2023-05-10T11:55:53;99405.44;;;16.71;58.16
16777;BME280;8505;49.456;8.164;2023-05-10T11:58:21;99412.84;;;16.69;58.23
16777;BME280;8505;49.456;8.164;2023-05-10T12:00:50;99415.59;;;16.63;59.12
16777;BME280;8505;49.456;8.164;2023-05-10T12:03:18;99412.00;;;16.44;58.81
16777;BME280;8505;49.456;8.164;2023-05-10T12:05:47;99414.94;;;16.36;59.17
16777;BME280;8505;49.456;8.164;2023-05-10T12:08:20;99420.94;;;16.56;58.14
16777;BME280;8505;49.456;8.164;2023-05-10T12:10:48;99410.41;;;16.68;58.05
16777;BME280;8505;49.456;8.164;2023-05-10T12:13:17;99402.88;;;16.83;56.89
16777;BME280;8505;49.456;8.164;2023-05-10T12:15:45;99395.81;;;16.88;57.29
16777;BME280;8505;49.456;8.164;2023-05-10T12:18:14;99408.59;;;16.86;57.07
16777;BME280;8505;49.456;8.164;2023-05-10T12:20:42;99408.91;;;16.96;55.57
16777;BME280;8505;49.456;8.164;2023-05-10T12:23:12;99412.78;;;17.55;55.00
16777;BME280;8505;49.456;8.164;2023-05-10T12:25:40;99403.91;;;17.61;54.21
16777;BME280;8505;49.456;8.164;2023-05-10T12:28:09;99402.94;;;18.15;53.30
16777;BME280;8505;49.456;8.164;2023-05-10T12:30:37;99407.03;;;18.18;51.22
16777;BME280;8505;49.456;8.164;2023-05-10T12:33:08;99406.00;;;18.19;51.64
16777;BME280;8505;49.456;8.164;2023-05-10T12:35:47;99408.44;;;17.91;52.25
16777;BME280;8505;49.456;8.164;2023-05-10T12:38:28;99410.22;;;17.97;51.77
16777;BME280;8505;49.456;8.164;2023-05-10T12:40:58;99407.44;;;18.03;51.27
16777;BME280;8505;49.456;8.164;2023-05-10T12:43:26;99407.97;;;18.12;50.83
16777;BME280;8505;49.456;8.164;2023-05-10T12:45:55;99416.00;;;17.82;50.37
16777;BME280;8505;49.456;8.164;2023-05-10T12:48:23;99419.31;;;17.96;50.11
16777;BME280;8505;49.456;8.164;2023-05-10T12:50:51;99421.31;;;18.00;49.70
16777;BME280;8505;49.456;8.164;2023-05-10T12:53:19;99420.09;;;17.66;49.03
16777;BME280;8505;49.456;8.164;2023-05-10T12:55:48;99417.34;;;17.73;49.79
16777;BME280;8505;49.456;8.164;2023-05-10T12:58:16;99422.22;;;17.94;50.42
16777;BME280;8505;49.456;8.164;2023-05-10T13:01:00;99420.84;;;17.73;49.95
16777;BME280;8505;49.456;8.164;2023-05-10T13:03:29;99423.06;;;17.58;49.94
16777;BME280;8505;49.456;8.164;2023-05-10T13:05:57;99428.09;;;17.85;50.31
16777;BME280;8505;49.456;8.164;2023-05-10T13:08:26;99425.81;;;18.18;49.80
16777;BME280;8505;49.456;8.164;2023-05-10T13:10:57;99427.94;;;17.98;49.21
16777;BME280;8505;49.456;8.164;2023-05-10T13:13:25;99422.41;;;18.11;48.64
16777;BME280;8505;49.456;8.164;2023-05-10T13:15:53;99427.03;;;18.04;49.05
16777;BME280;8505;49.456;8.164;2023-05-10T13:18:21;99421.88;;;17.72;48.60
16777;BME280;8505;49.456;8.164;2023-05-10T13:20:51;99407.53;;;17.97;47.63
16777;BME280;8505;49.456;8.164;2023-05-10T13:23:18;99414.75;;;17.96;47.40
16777;BME280;8505;49.456;8.164;2023-05-10T13:25:46;99413.06;;;18.02;47.28
16777;BME280;8505;49.456;8.164;2023-05-10T13:28:16;99410.63;;;17.82;47.95
16777;BME280;8505;49.456;8.164;2023-05-10T13:30:44;99420.63;;;18.05;47.52